Time;durP1;ratioP1;P1;durP2;ratioP2;P2;SDS_P1;SDS_P2;PMS_P1;PMS_P2;Temp;Humidity;BMP_temperature;BMP_pressure;BME280_temperature;BME280_humidity;BME280_pressure;Samples;Min_cycle;Max_cycle;Signal;HPM_P1;HPM_P2
2022/02/13 00:02:38;;;;;;;65.50;33.58;;;22.90;33.20;;;;;;6147993;28;83505;-65
2022/02/13 00:05:39;;;;;;;54.67;31.23;;;22.90;33.20;;;;;;6150223;28;83984;-64
2022/02/13 00:08:39;;;;;;;56.63;31.38;;;22.80;33.10;;;;;;6142684;28;83199;-64
2022/02/13 00:11:40;;;;;;;56.17;31.58;;;22.80;33.10;;;;;;6152857;28;91006;-63
2022/02/13 00:14:41;;;;;;;57.60;31.95;;;22.80;33.10;;;;;;6150565;28;83812;-65
2022/02/13 00:17:42;;;;;;;56.80;29.88;;;22.80;33.10;;;;;;6144740;28;83244;-64
2022/02/13 00:20:43;;;;;;;56.95;31.17;;;22.80;33.00;;;;;;6147710;28;84460;-63
2022/02/13 00:23:43;;;;;;;56.42;31.25;;;22.80;33.00;;;;;;6152328;28;84717;-63
2022/02/13 00:26:44;;;;;;;56.10;30.88;;;22.70;33.00;;;;;;6158660;28;84065;-62
2022/02/13 00:29:44;;;;;;;56.67;30.08;;;22.70;33.00;;;;;;6136217;28;84350;-64
2022/02/13 00:32:45;;;;;;;57.03;31.85;;;22.70;32.90;;;;;;6137711;28;83255;-64
2022/02/13 00:35:46;;;;;;;54.42;30.50;;;22.70;32.90;;;;;;6143564;28;83546;-64
2022/02/13 00:38:47;;;;;;;49.78;29.35;;;22.70;33.00;;;;;;6150774;28;83200;-64
2022/02/13 00:41:48;;;;;;;53.95;30.10;;;22.70;32.90;;;;;;6153414;28;83272;-64
2022/02/13 00:44:48;;;;;;;57.25;30.58;;;22.70;33.00;;;;;;6150136;28;84733;-63
2022/02/13 00:47:49;;;;;;;55.05;30.90;;;22.70;32.90;;;;;;6149269;28;83293;-63
2022/02/13 00:50:49;;;;;;;53.92;30.20;;;22.70;32.80;;;;;;6149451;28;83740;-62
2022/02/13 00:53:50;;;;;;;53.08;31.25;;;22.70;32.90;;;;;;6145168;28;83243;-61
2022/02/13 00:56:50;;;;;;;55.05;30.67;;;22.70;32.60;;;;;;6137783;28;84470;-61
2022/02/13 00:59:51;;;;;;;53.03;28.95;;;22.60;32.50;;;;;;6140646;28;83451;-61
2022/02/13 01:02:51;;;;;;;52.60;29.95;;;22.60;32.60;;;;;;6140485;28;83249;-63
2022/02/13 01:05:52;;;;;;;53.35;28.52;;;22.60;32.50;;;;;;6139711;28;84384;-63
2022/02/13 01:08:53;;;;;;;52.28;29.02;;;22.60;32.30;;;;;;6149726;28;83172;-63
2022/02/13 01:11:53;;;;;;;57.20;30.67;;;22.60;32.40;;;;;;6147971;28;83476;-62
2022/02/13 01:14:55;;;;;;;56.55;30.38;;;22.50;32.40;;;;;;6139948;28;83507;-61
2022/02/13 01:17:56;;;;;;;53.38;30.38;;;22.50;32.50;;;;;;6141896;28;83244;-64
2022/02/13 01:20:57;;;;;;;58.72;30.33;;;22.50;32.40;;;;;;6150133;28;83366;-61
2022/02/13 01:23:58;;;;;;;54.80;29.73;;;22.50;32.30;;;;;;6144558;28;83411;-63
2022/02/13 01:26:59;;;;;;;49.05;26.48;;;22.50;32.60;;;;;;6124209;28;83458;-65
2022/02/13 01:29:59;;;;;;;48.88;27.25;;;22.50;32.60;;;;;;6144530;28;83550;-63
2022/02/13 01:33:01;;;;;;;51.90;27.70;;;22.40;32.80;;;;;;6139652;28;84852;-64
2022/02/13 01:36:02;;;;;;;54.70;28.08;;;22.50;32.60;;;;;;6143518;28;83808;-65
2022/02/13 01:39:02;;;;;;;50.85;27.27;;;22.40;32.70;;;;;;6141074;28;83201;-65
2022/02/13 01:42:03;;;;;;;50.30;27.73;;;22.40;32.60;;;;;;6140392;28;84000;-64
2022/02/13 01:45:04;;;;;;;49.15;27.20;;;22.40;32.70;;;;;;6137283;28;83226;-63
2022/02/13 01:48:08;;;;;;;47.25;27.83;;;22.40;32.40;;;;;;6144845;28;84876;-63
2022/02/13 01:51:08;;;;;;;46.20;25.35;;;22.40;32.70;;;;;;6137808;28;83079;-62
2022/02/13 01:54:09;;;;;;;47.53;25.83;;;22.40;32.40;;;;;;6136264;28;83261;-63
2022/02/13 02:00:29;;;;;;;49.83;26.73;;;22.40;32.70;;;;;;6447570;22;87977;-64
2022/02/13 02:03:29;;;;;;;49.65;26.90;;;22.50;32.80;;;;;;6096128;28;84052;-63
2022/02/13 02:06:30;;;;;;;50.28;26.90;;;22.40;32.70;;;;;;6095941;28;84105;-63
2022/02/13 02:09:30;;;;;;;50.55;26.13;;;22.50;32.70;;;;;;6099283;28;83756;-64
2022/02/13 02:12:32;;;;;;;49.10;26.17;;;22.50;32.80;;;;;;6101376;28;82950;-64
2022/02/13 02:15:32;;;;;;;42.53;23.70;;;22.50;32.70;;;;;;6103053;28;83156;-63
2022/02/13 02:18:33;;;;;;;44.33;23.45;;;22.50;33.40;;;;;;6104741;28;83058;-63
2022/02/13 02:21:33;;;;;;;40.00;22.48;;;22.50;33.40;;;;;;6106179;28;83136;-64
2022/02/13 02:24:34;;;;;;;43.47;23.65;;;22.50;33.30;;;;;;6104058;28;82899;-64
2022/02/13 02:27:35;;;;;;;44.83;23.90;;;22.50;33.90;;;;;;6102021;28;83431;-64
2022/02/13 02:30:35;;;;;;;42.65;22.73;;;22.40;33.20;;;;;;6105120;28;83175;-64
2022/02/13 02:33:36;;;;;;;44.30;23.85;;;22.40;33.70;;;;;;6101401;28;82877;-64
2022/02/13 02:36:37;;;;;;;44.47;23.75;;;22.40;33.60;;;;;;6105648;28;83574;-64
2022/02/13 02:39:38;;;;;;;44.25;22.88;;;22.40;33.60;;;;;;6092419;28;83314;-65
2022/02/13 02:42:38;;;;;;;43.33;22.98;;;22.40;33.90;;;;;;6104209;28;83847;-65
2022/02/13 02:45:39;;;;;;;45.42;24.58;;;22.40;33.40;;;;;;6087384;28;83713;-64
2022/02/13 02:48:40;;;;;;;44.53;23.05;;;22.40;33.10;;;;;;6103897;28;83358;-63
2022/02/13 02:51:40;;;;;;;37.63;21.40;;;22.30;33.30;;;;;;6104861;28;83600;-64
2022/02/13 02:54:41;;;;;;;39.67;22.65;;;22.30;33.60;;;;;;6105165;28;85097;-64
2022/02/13 02:57:41;;;;;;;41.38;21.90;;;22.30;33.50;;;;;;6105766;28;83967;-63
2022/02/13 03:00:42;;;;;;;42.70;23.92;;;22.30;33.20;;;;;;6115321;28;83137;-63
2022/02/13 03:03:42;;;;;;;43.13;23.42;;;22.30;33.50;;;;;;6127693;28;83172;-64
2022/02/13 03:06:43;;;;;;;39.60;22.67;;;22.30;34.10;;;;;;6110367;28;84198;-64
2022/02/13 03:09:44;;;;;;;38.22;22.38;;;22.30;33.40;;;;;;6118478;28;83380;-64
2022/02/13 03:12:44;;;;;;;42.80;23.08;;;22.30;33.30;;;;;;6117105;28;84080;-64
2022/02/13 03:15:46;;;;;;;45.20;22.38;;;22.30;33.00;;;;;;6113839;28;83346;-65
2022/02/13 03:18:46;;;;;;;39.55;21.80;;;22.30;33.40;;;;;;6106662;28;84628;-65
2022/02/13 03:21:47;;;;;;;37.17;22.67;;;22.30;33.10;;;;;;6125282;28;83507;-64
2022/02/13 03:24:47;;;;;;;39.90;22.33;;;22.30;33.10;;;;;;6124442;28;84291;-64
2022/02/13 03:27:48;;;;;;;45.67;23.40;;;22.30;33.00;;;;;;6102776;28;83220;-64
2022/02/13 03:30:48;;;;;;;41.70;23.52;;;22.30;33.10;;;;;;6107738;28;84202;-64
2022/02/13 03:33:49;;;;;;;39.92;21.48;;;22.20;33.20;;;;;;6098838;28;83027;-64
2022/02/13 03:36:51;;;;;;;43.55;23.27;;;22.20;32.90;;;;;;6124935;28;83610;-64
2022/02/13 03:39:52;;;;;;;40.13;21.83;;;22.30;33.50;;;;;;6111760;28;82978;-64
2022/02/13 03:42:52;;;;;;;40.00;22.23;;;22.30;33.10;;;;;;6107973;28;83871;-64
2022/02/13 03:45:53;;;;;;;42.08;21.45;;;22.30;33.00;;;;;;6106257;28;83414;-64
2022/02/13 03:48:53;;;;;;;42.75;22.95;;;22.30;32.70;;;;;;6116445;28;83764;-64
2022/02/13 03:51:54;;;;;;;39.50;21.70;;;22.30;33.10;;;;;;6108461;28;83258;-64
2022/02/13 03:54:54;;;;;;;41.50;22.13;;;22.30;32.80;;;;;;6117617;28;83188;-63
2022/02/13 03:57:55;;;;;;;38.70;22.20;;;22.30;32.90;;;;;;6107076;28;82944;-63
2022/02/13 04:00:55;;;;;;;40.30;21.88;;;22.20;33.00;;;;;;6099401;28;84083;-63
2022/02/13 04:03:56;;;;;;;43.13;21.27;;;22.30;33.00;;;;;;6097837;28;86555;-62
2022/02/13 04:06:56;;;;;;;39.45;22.38;;;22.20;33.10;;;;;;6090943;28;83223;-63
2022/02/13 04:09:57;;;;;;;36.15;22.45;;;22.30;33.20;;;;;;6127426;28;83337;-63
2022/02/13 04:12:57;;;;;;;37.70;21.83;;;22.30;33.20;;;;;;6125789;28;82959;-63
2022/02/13 04:15:58;;;;;;;39.53;20.98;;;22.30;33.40;;;;;;6120475;28;83632;-64
2022/02/13 04:18:59;;;;;;;38.35;21.88;;;22.40;33.60;;;;;;6109673;28;82732;-64
2022/02/13 04:21:59;;;;;;;42.90;23.33;;;22.40;33.10;;;;;;6102528;28;83054;-63
2022/02/13 04:25:00;;;;;;;43.88;22.85;;;22.40;32.60;;;;;;6116709;28;83804;-63
2022/02/13 04:28:00;;;;;;;45.58;23.80;;;22.40;32.20;;;;;;6097532;28;83137;-63
2022/02/13 04:31:01;;;;;;;46.65;24.15;;;22.50;32.00;;;;;;6095167;28;83946;-64
2022/02/13 04:34:01;;;;;;;44.00;24.63;;;22.50;31.60;;;;;;6121283;28;83202;-64
2022/02/13 04:37:03;;;;;;;48.78;25.77;;;22.60;31.50;;;;;;6125750;28;83238;-64
2022/02/13 04:40:03;;;;;;;45.30;24.05;;;22.60;31.40;;;;;;6119275;28;84811;-63
2022/02/13 04:43:04;;;;;;;46.42;24.48;;;22.70;31.20;;;;;;6115020;28;84377;-63
2022/02/13 04:46:04;;;;;;;49.92;25.83;;;22.70;31.00;;;;;;6107457;28;83785;-63
2022/02/13 04:49:05;;;;;;;48.75;25.20;;;22.70;30.90;;;;;;6109096;28;83476;-64
2022/02/13 04:52:05;;;;;;;46.65;24.92;;;22.80;30.80;;;;;;6120363;28;84296;-64
2022/02/13 04:55:06;;;;;;;45.60;25.73;;;22.80;30.70;;;;;;6091796;28;83789;-64
2022/02/13 04:58:06;;;;;;;49.47;26.23;;;22.80;30.60;;;;;;6122894;28;84172;-64
2022/02/13 05:01:07;;;;;;;47.22;25.67;;;22.80;30.50;;;;;;6108603;28;83284;-64
2022/02/13 05:04:08;;;;;;;47.60;25.65;;;22.80;30.40;;;;;;6127184;28;84319;-65
2022/02/13 05:07:08;;;;;;;45.75;24.85;;;22.90;30.30;;;;;;6116320;28;83225;-64
2022/02/13 05:10:09;;;;;;;46.50;25.55;;;22.90;30.10;;;;;;6108291;28;84350;-64
2022/02/13 05:13:09;;;;;;;46.17;25.70;;;22.90;30.10;;;;;;6128833;28;83077;-64
2022/02/13 05:16:10;;;;;;;48.10;26.15;;;22.90;30.00;;;;;;6098121;28;83889;-64
2022/02/13 05:19:11;;;;;;;49.03;25.75;;;23.00;30.00;;;;;;6104377;28;83398;-64
2022/02/13 05:22:11;;;;;;;47.25;23.35;;;23.00;30.00;;;;;;6108891;28;82918;-64
2022/02/13 05:25:12;;;;;;;43.72;25.35;;;23.00;30.00;;;;;;6115476;28;84061;-63
2022/02/13 05:28:12;;;;;;;49.10;26.63;;;23.00;29.90;;;;;;6105884;28;83231;-63
2022/02/13 05:31:13;;;;;;;46.70;25.60;;;23.00;29.90;;;;;;6101746;28;84438;-64
2022/02/13 05:34:16;;;;;;;47.95;25.75;;;23.00;29.90;;;;;;6094598;28;84174;-63
2022/02/13 05:37:16;;;;;;;48.58;24.92;;;23.00;29.90;;;;;;6102730;28;83373;-63
2022/02/13 05:40:17;;;;;;;42.92;24.73;;;23.00;29.90;;;;;;6097901;28;83214;-63
2022/02/13 05:43:18;;;;;;;47.35;25.50;;;23.10;29.90;;;;;;6102324;28;82784;-63
2022/02/13 05:46:18;;;;;;;48.55;25.67;;;23.10;29.80;;;;;;6105552;28;83837;-64
2022/02/13 05:49:19;;;;;;;46.13;25.67;;;23.10;29.80;;;;;;6112358;28;83135;-59
2022/02/13 05:52:19;;;;;;;49.47;26.77;;;23.20;29.90;;;;;;6101665;28;85250;-60
2022/02/13 05:55:20;;;;;;;49.28;26.35;;;23.20;29.80;;;;;;6108420;28;83036;-60
2022/02/13 05:58:20;;;;;;;49.42;27.33;;;23.20;29.70;;;;;;6087824;28;82898;-60
2022/02/13 06:01:21;;;;;;;51.60;27.33;;;23.10;29.50;;;;;;6090365;28;83570;-64
2022/02/13 06:04:22;;;;;;;53.53;27.60;;;23.10;29.40;;;;;;6100314;28;82722;-66
2022/02/13 06:07:22;;;;;;;47.85;26.50;;;23.10;29.40;;;;;;6110854;28;83177;-66
2022/02/13 06:10:23;;;;;;;49.55;26.40;;;23.10;29.90;;;;;;6089917;28;83105;-65
2022/02/13 06:13:23;;;;;;;53.63;28.10;;;23.10;29.90;;;;;;6099664;28;84128;-66
2022/02/13 06:16:24;;;;;;;47.30;26.33;;;23.10;30.00;;;;;;6111478;28;83312;-65
2022/02/13 06:19:24;;;;;;;50.17;26.17;;;23.10;30.00;;;;;;6092964;28;83159;-67
2022/02/13 06:22:25;;;;;;;51.00;27.40;;;23.10;30.50;;;;;;6105496;28;83825;-65
2022/02/13 06:25:25;;;;;;;44.67;24.55;;;23.10;30.20;;;;;;6111368;28;85188;-65
2022/02/13 06:28:26;;;;;;;44.80;23.55;;;23.10;30.50;;;;;;6101248;28;84688;-66
2022/02/13 06:31:27;;;;;;;37.35;19.20;;;23.10;30.80;;;;;;6106969;28;84466;-65
2022/02/13 06:34:27;;;;;;;30.42;16.83;;;23.00;31.50;;;;;;6109914;28;84073;-65
2022/02/13 06:37:30;;;;;;;24.75;13.35;;;22.70;32.70;;;;;;6103154;28;83797;-67
2022/02/13 06:40:31;;;;;;;20.10;11.68;;;22.50;33.70;;;;;;6123188;28;83151;-75
2022/02/13 06:43:33;;;;;;;22.08;11.38;;;22.40;34.80;;;;;;6109964;28;83432;-67
2022/02/13 06:46:33;;;;;;;18.45;10.63;;;22.50;35.30;;;;;;6093991;28;84845;-68
2022/02/13 06:49:34;;;;;;;18.52;9.18;;;22.50;35.60;;;;;;6101428;28;85034;-65
2022/02/13 06:52:35;;;;;;;15.05;8.52;;;22.60;36.60;;;;;;6104474;28;82906;-66
2022/02/13 06:55:35;;;;;;;17.55;9.90;;;22.50;37.30;;;;;;6121078;28;80465;-66
2022/02/13 06:58:36;;;;;;;18.73;10.30;;;22.40;38.30;;;;;;6111974;28;81575;-66
2022/02/13 07:01:36;;;;;;;16.15;9.70;;;22.40;39.10;;;;;;6099395;28;83158;-67
2022/02/13 07:04:37;;;;;;;19.63;10.23;;;22.40;39.30;;;;;;6106819;28;82360;-67
2022/02/13 07:07:38;;;;;;;13.02;8.70;;;22.40;39.90;;;;;;6119664;28;83284;-66
2022/02/13 07:10:38;;;;;;;18.75;9.45;;;22.30;40.00;;;;;;6123206;28;83253;-67
2022/02/13 07:13:39;;;;;;;11.45;7.00;;;22.30;40.30;;;;;;6124201;28;80337;-67
2022/02/13 07:16:39;;;;;;;16.00;7.63;;;22.30;40.90;;;;;;6128628;28;80930;-67
2022/02/13 07:19:40;;;;;;;13.90;7.70;;;22.30;41.20;;;;;;6124867;28;80225;-67
2022/02/13 07:22:41;;;;;;;13.30;7.85;;;22.40;41.30;;;;;;6128551;28;80392;-66
2022/02/13 07:25:41;;;;;;;15.73;8.90;;;22.40;41.90;;;;;;6127435;28;81632;-65
2022/02/13 07:29:00;;;;;;;16.58;9.30;;;22.40;41.90;;;;;;6128444;28;81935;-65
2022/02/13 07:32:00;;;;;;;17.08;9.13;;;22.50;42.30;;;;;;6117155;28;80312;-67
2022/02/13 07:35:01;;;;;;;18.23;10.93;;;22.60;42.50;;;;;;6112357;28;81242;-69
2022/02/13 07:38:01;;;;;;;18.80;10.55;;;22.60;42.00;;;;;;6104902;28;82910;-67
2022/02/13 07:41:02;;;;;;;17.98;10.43;;;22.70;42.20;;;;;;6106928;28;83119;-66
2022/02/13 07:44:03;;;;;;;32.67;18.33;;;22.80;41.80;;;;;;6101838;28;83189;-67
2022/02/13 07:47:06;;;;;;;37.03;21.02;;;22.70;37.70;;;;;;6119457;28;83701;-65
2022/02/13 07:50:07;;;;;;;39.95;22.27;;;22.60;35.40;;;;;;6108193;28;86248;-68
2022/02/13 07:53:07;;;;;;;33.17;17.88;;;22.30;34.30;;;;;;6105104;28;83101;-66
2022/02/13 07:56:08;;;;;;;29.50;14.70;;;22.40;36.80;;;;;;6105592;28;84018;-66
2022/02/13 07:59:09;;;;;;;25.45;14.43;;;22.60;37.50;;;;;;6111578;28;83293;-69
2022/02/13 08:02:09;;;;;;;27.63;14.00;;;22.60;38.10;;;;;;6094908;28;83541;-65
2022/02/13 08:05:13;;;;;;;23.52;12.27;;;22.70;39.20;;;;;;6094654;28;83127;-67
2022/02/13 08:08:14;;;;;;;23.85;13.45;;;22.70;39.70;;;;;;6124093;28;84298;-60
2022/02/13 08:11:14;;;;;;;22.80;12.50;;;22.70;39.80;;;;;;6122571;28;84485;-66
2022/02/13 08:14:15;;;;;;;21.25;11.40;;;22.80;40.80;;;;;;6116231;28;83162;-63
2022/02/13 08:17:15;;;;;;;23.45;12.68;;;22.80;40.50;;;;;;6106546;28;83547;-66
2022/02/13 08:20:16;;;;;;;22.70;11.85;;;22.90;40.70;;;;;;6089834;28;84111;-65
2022/02/13 08:23:17;;;;;;;20.90;12.10;;;23.00;40.50;;;;;;6109828;28;84099;-66
2022/02/13 08:26:17;;;;;;;17.95;11.38;;;23.00;40.80;;;;;;6124564;28;83009;-62
2022/02/13 08:29:18;;;;;;;21.15;11.82;;;23.10;41.10;;;;;;6127559;28;83326;-63
2022/02/13 08:32:19;;;;;;;19.00;10.30;;;23.20;41.10;;;;;;6119248;28;85232;-64
2022/02/13 08:35:21;;;;;;;17.40;10.25;;;23.20;41.10;;;;;;6104415;28;84987;-62
2022/02/13 08:38:23;;;;;;;19.38;10.25;;;23.40;41.90;;;;;;6087493;28;83345;-61
2022/02/13 08:41:23;;;;;;;18.10;10.55;;;23.50;41.70;;;;;;6108440;28;83816;-67
2022/02/13 08:44:24;;;;;;;18.33;9.70;;;23.50;41.60;;;;;;6103997;28;83254;-64
2022/02/13 08:47:24;;;;;;;19.63;9.43;;;23.60;42.20;;;;;;6100370;28;81814;-62
2022/02/13 08:50:25;;;;;;;18.52;10.32;;;23.70;41.70;;;;;;6098257;28;81618;-60
2022/02/13 08:53:26;;;;;;;17.75;10.23;;;23.70;41.70;;;;;;6100123;28;87285;-63
2022/02/13 08:56:27;;;;;;;21.55;9.93;;;23.70;41.10;;;;;;6096348;28;83448;-63
2022/02/13 08:59:27;;;;;;;15.90;9.00;;;23.80;41.30;;;;;;6101047;28;83282;-63
2022/02/13 09:02:28;;;;;;;18.63;9.95;;;23.90;41.30;;;;;;6096917;28;83742;-62
2022/02/13 09:05:28;;;;;;;16.75;9.13;;;23.90;41.30;;;;;;6108470;28;80481;-62
2022/02/13 09:08:29;;;;;;;15.13;8.93;;;24.00;41.00;;;;;;6105268;28;80357;-60
2022/02/13 09:11:29;;;;;;;14.75;8.05;;;24.00;41.30;;;;;;6126450;28;80274;-60
2022/02/13 09:14:30;;;;;;;14.32;7.90;;;24.10;41.40;;;;;;6109126;28;80723;-62
2022/02/13 09:17:30;;;;;;;22.10;9.63;;;24.10;41.10;;;;;;6120729;28;81092;-63
2022/02/13 09:20:31;;;;;;;14.05;8.32;;;24.20;41.40;;;;;;6126679;28;80863;-60
2022/02/13 09:23:32;;;;;;;13.85;7.30;;;24.30;42.00;;;;;;6128389;28;80567;-62
2022/02/13 09:26:32;;;;;;;12.32;6.75;;;24.40;42.20;;;;;;6124752;28;80379;-62
2022/02/13 09:29:33;;;;;;;13.27;7.20;;;24.50;42.10;;;;;;6119735;28;80323;-62
2022/02/13 09:32:33;;;;;;;12.43;6.45;;;24.60;41.70;;;;;;6117801;28;81720;-61
2022/02/13 09:35:34;;;;;;;11.15;6.45;;;24.60;42.00;;;;;;6094464;28;81795;-62
2022/02/13 09:38:35;;;;;;;13.90;6.55;;;24.70;42.20;;;;;;6115689;28;80471;-61
2022/02/13 09:41:37;;;;;;;11.43;5.78;;;24.70;42.00;;;;;;6105229;28;82120;-62
2022/02/13 09:44:37;;;;;;;12.45;6.22;;;24.80;41.90;;;;;;6091623;28;81370;-61
2022/02/13 09:47:38;;;;;;;8.38;4.82;;;24.80;39.20;;;;;;6109519;28;80923;-61
2022/02/13 09:50:39;;;;;;;7.53;4.63;;;24.80;36.60;;;;;;6103421;28;80870;-61
2022/02/13 09:53:39;;;;;;;10.15;4.10;;;24.80;33.60;;;;;;6111139;28;81654;-63
2022/02/13 09:56:40;;;;;;;8.50;4.28;;;24.80;33.30;;;;;;6097624;28;80893;-63
2022/02/13 09:59:40;;;;;;;6.45;4.32;;;24.70;31.20;;;;;;6104002;28;81005;-60
2022/02/13 10:02:41;;;;;;;7.25;4.15;;;24.70;29.80;;;;;;6105357;28;80863;-63
2022/02/13 10:05:41;;;;;;;6.57;3.58;;;24.70;29.80;;;;;;6096577;28;80783;-63
2022/02/13 10:08:42;;;;;;;6.55;3.92;;;24.80;29.40;;;;;;6103536;28;80446;-63
2022/02/13 10:11:45;;;;;;;6.32;3.88;;;24.80;29.30;;;;;;6108815;28;81573;-60
2022/02/13 10:14:45;;;;;;;6.18;3.17;;;24.90;29.60;;;;;;6111319;28;80164;-62
2022/02/13 10:17:46;;;;;;;5.65;3.40;;;24.90;30.60;;;;;;6116933;28;82153;-58
2022/02/13 10:20:47;;;;;;;4.75;2.75;;;24.90;30.90;;;;;;6112833;28;81685;-60
2022/02/13 10:23:47;;;;;;;4.65;3.10;;;25.00;31.80;;;;;;6112299;28;81923;-60
2022/02/13 10:26:52;;;;;;;6.70;3.13;;;25.00;32.40;;;;;;6112606;28;80862;-60
2022/02/13 10:29:53;;;;;;;3.20;2.38;;;25.00;33.20;;;;;;6110513;28;81785;-60
2022/02/13 10:32:54;;;;;;;8.85;3.38;;;25.10;33.60;;;;;;6101961;28;80954;-60
2022/02/13 10:35:54;;;;;;;4.65;3.05;;;25.10;34.10;;;;;;6125189;28;81706;-60
2022/02/13 10:38:55;;;;;;;6.88;2.42;;;25.10;34.70;;;;;;6143603;28;80612;-61
2022/02/13 10:41:55;;;;;;;3.90;2.78;;;25.20;35.40;;;;;;6117068;28;80618;-61
2022/02/13 10:44:56;;;;;;;3.75;2.60;;;25.30;35.70;;;;;;6126691;28;80447;-61
2022/02/13 10:48:00;;;;;;;3.63;2.40;;;25.30;35.80;;;;;;6110321;28;80517;-60
2022/02/13 10:51:00;;;;;;;6.55;2.97;;;25.30;35.90;;;;;;6118068;28;80392;-60
2022/02/13 10:54:09;;;;;;;3.95;2.33;;;25.40;35.90;;;;;;6110132;28;80950;-60
2022/02/13 10:57:10;;;;;;;2.83;2.38;;;25.30;35.60;;;;;;6110660;28;80551;-60
2022/02/13 11:00:11;;;;;;;3.85;2.70;;;25.30;35.90;;;;;;6100756;28;80521;-62
2022/02/13 11:03:11;;;;;;;5.38;2.65;;;25.30;35.50;;;;;;6112718;28;80610;-63
2022/02/13 11:06:12;;;;;;;3.97;2.55;;;25.30;36.20;;;;;;6117797;28;81637;-62
2022/02/13 11:09:13;;;;;;;6.22;2.45;;;25.30;36.60;;;;;;6102062;28;81513;-66
2022/02/13 11:12:13;;;;;;;6.30;2.47;;;25.30;36.20;;;;;;6111299;28;80605;-62
2022/02/13 11:15:14;;;;;;;4.38;2.45;;;25.30;36.20;;;;;;6103628;28;80504;-64
2022/02/13 11:18:14;;;;;;;3.88;2.30;;;25.30;36.40;;;;;;6108744;28;81740;-61
2022/02/13 11:21:15;;;;;;;7.65;2.97;;;25.40;36.60;;;;;;6109848;28;82176;-62
2022/02/13 11:24:15;;;;;;;6.70;2.30;;;25.40;36.70;;;;;;6102516;28;82973;-61
2022/02/13 11:27:16;;;;;;;3.65;2.30;;;25.50;36.80;;;;;;6103735;28;80651;-61
2022/02/13 11:30:17;;;;;;;5.78;2.13;;;25.50;37.10;;;;;;6105436;28;80353;-60
2022/02/13 11:33:17;;;;;;;5.97;2.25;;;25.50;37.10;;;;;;6104910;28;82085;-62
2022/02/13 11:36:18;;;;;;;5.22;2.10;;;25.60;37.30;;;;;;6109866;28;80328;-62
2022/02/13 11:39:18;;;;;;;4.18;2.42;;;25.70;37.30;;;;;;6101236;28;80830;-62
2022/02/13 11:42:19;;;;;;;3.90;2.38;;;25.70;36.80;;;;;;6111885;28;80671;-61
2022/02/13 11:45:20;;;;;;;5.07;3.17;;;25.80;36.30;;;;;;6104879;28;80435;-62
2022/02/13 11:48:20;;;;;;;3.83;2.55;;;25.90;36.00;;;;;;6098308;28;82996;-61
2022/02/13 11:51:21;;;;;;;5.22;2.83;;;26.00;35.80;;;;;;6096247;28;80440;-61
2022/02/13 11:54:22;;;;;;;4.07;2.70;;;26.00;35.60;;;;;;6107801;28;81924;-61
2022/02/13 11:57:22;;;;;;;7.50;3.20;;;26.10;35.40;;;;;;6099017;28;81040;-62
2022/02/13 12:00:23;;;;;;;3.30;2.60;;;26.10;35.40;;;;;;6108466;28;80788;-60
2022/02/13 12:03:25;;;;;;;8.10;3.13;;;26.10;35.50;;;;;;6105387;28;80778;-60
2022/02/13 12:06:25;;;;;;;4.85;3.30;;;26.10;35.80;;;;;;6098222;28;80487;-60
2022/02/13 12:09:28;;;;;;;6.93;2.75;;;26.10;35.70;;;;;;6118270;28;80394;-59
2022/02/13 12:12:28;;;;;;;5.60;3.20;;;26.10;35.30;;;;;;6112984;28;80767;-59
2022/02/13 12:15:29;;;;;;;5.55;3.10;;;26.10;35.20;;;;;;6112386;28;81599;-60
2022/02/13 12:18:29;;;;;;;3.92;2.90;;;26.10;35.40;;;;;;6126646;28;80504;-63
2022/02/13 12:21:30;;;;;;;4.90;2.90;;;26.10;34.40;;;;;;6108570;28;81547;-63
2022/02/13 12:24:31;;;;;;;6.03;3.25;;;26.10;34.60;;;;;;6101501;28;80956;-62
2022/02/13 12:27:32;;;;;;;5.28;3.05;;;26.00;34.20;;;;;;6105180;28;81329;-61
2022/02/13 12:30:32;;;;;;;10.00;3.60;;;26.00;33.90;;;;;;6103031;28;80210;-62
2022/02/13 12:33:34;;;;;;;4.20;3.13;;;25.90;33.50;;;;;;6109323;28;82665;-61
2022/02/13 12:36:35;;;;;;;6.03;3.50;;;25.90;33.40;;;;;;6110966;28;80923;-61
2022/02/13 12:39:36;;;;;;;4.88;3.13;;;25.90;33.00;;;;;;6107321;28;81110;-63
2022/02/13 12:42:37;;;;;;;5.47;3.20;;;25.90;32.90;;;;;;6115811;28;80945;-64
2022/02/13 12:45:37;;;;;;;6.57;3.70;;;25.90;32.60;;;;;;6110873;28;80444;-66
2022/02/13 12:48:38;;;;;;;6.43;4.03;;;25.90;32.60;;;;;;6114067;28;80306;-64
2022/02/13 12:51:39;;;;;;;14.60;3.65;;;25.90;32.50;;;;;;6107643;28;82377;-63
2022/02/13 12:54:39;;;;;;;6.90;3.83;;;26.00;32.40;;;;;;6109573;28;81447;-64
2022/02/13 12:57:40;;;;;;;10.52;4.07;;;26.00;32.10;;;;;;6096939;28;81186;-61
2022/02/13 13:00:40;;;;;;;9.38;3.88;;;26.10;32.00;;;;;;6103614;28;80498;-63
2022/02/13 13:03:42;;;;;;;8.45;4.30;;;26.10;32.00;;;;;;6111591;28;81252;-63
2022/02/13 13:06:43;;;;;;;5.85;3.58;;;26.10;31.90;;;;;;6105240;28;80427;-62
2022/02/13 13:09:43;;;;;;;5.90;3.30;;;26.20;31.90;;;;;;6112583;28;80769;-64
2022/02/13 13:12:44;;;;;;;8.38;3.78;;;26.20;32.50;;;;;;6106669;28;81889;-65
2022/02/13 13:15:53;;;;;;;6.95;3.20;;;26.20;33.50;;;;;;6110244;28;82243;-64
2022/02/13 13:18:58;;;;;;;4.93;2.90;;;26.20;34.00;;;;;;6105099;28;81547;-66
2022/02/13 13:21:59;;;;;;;2.95;2.45;;;26.20;34.70;;;;;;6101469;28;81297;-63
2022/02/13 13:24:59;;;;;;;5.28;2.40;;;26.20;35.20;;;;;;6092226;28;81913;-64
2022/02/13 13:28:00;;;;;;;2.97;2.50;;;26.20;35.30;;;;;;6108010;28;80394;-63
2022/02/13 13:31:00;;;;;;;5.75;3.03;;;26.20;35.70;;;;;;6111907;28;80548;-62
2022/02/13 13:34:01;;;;;;;4.05;2.10;;;26.20;35.70;;;;;;6101775;28;80443;-64
2022/02/13 13:37:01;;;;;;;4.65;2.35;;;26.20;35.90;;;;;;6104605;28;81519;-62
2022/02/13 13:40:02;;;;;;;3.72;2.30;;;26.30;36.60;;;;;;6108534;28;83148;-62
2022/02/13 13:43:10;;;;;;;7.35;2.30;;;26.40;37.30;;;;;;6101260;28;80896;-65
2022/02/13 13:46:11;;;;;;;3.08;2.38;;;26.40;37.20;;;;;;6101707;28;81275;-62
2022/02/13 13:49:11;;;;;;;3.25;2.38;;;26.40;37.00;;;;;;6111010;28;80222;-62
2022/02/13 13:52:13;;;;;;;7.22;2.30;;;26.40;36.50;;;;;;6109013;28;80503;-61
2022/02/13 13:55:14;;;;;;;4.40;2.10;;;26.40;36.80;;;;;;6112809;28;80586;-60
2022/02/13 13:58:14;;;;;;;2.40;1.98;;;26.50;36.60;;;;;;6120078;28;80927;-63
2022/02/13 14:01:15;;;;;;;3.00;2.15;;;26.70;36.70;;;;;;6104662;28;80910;-64
2022/02/13 14:04:15;;;;;;;3.78;2.58;;;26.70;35.80;;;;;;6115693;28;82471;-62
2022/02/13 14:07:16;;;;;;;2.88;2.10;;;26.80;36.50;;;;;;6117309;28;80641;-62
2022/02/13 14:10:17;;;;;;;2.88;2.22;;;26.80;36.00;;;;;;6110380;28;80124;-62
2022/02/13 14:13:19;;;;;;;2.50;2.10;;;27.00;35.50;;;;;;6106617;28;80856;-64
2022/02/13 14:16:19;;;;;;;3.30;2.15;;;27.40;35.50;;;;;;6107122;28;80378;-61
2022/02/13 14:19:20;;;;;;;2.58;2.20;;;27.80;35.10;;;;;;6109308;28;80352;-59
2022/02/13 14:22:21;;;;;;;3.22;2.45;;;28.20;34.90;;;;;;6110213;28;80610;-62
2022/02/13 14:25:21;;;;;;;3.03;2.35;;;28.10;34.90;;;;;;6095014;28;83105;-62
2022/02/13 14:28:22;;;;;;;2.95;2.28;;;27.80;35.40;;;;;;6109521;28;82190;-61
2022/02/13 14:31:22;;;;;;;4.13;2.70;;;27.60;35.80;;;;;;6108798;28;81875;-61
2022/02/13 14:34:23;;;;;;;3.88;2.53;;;27.40;36.40;;;;;;6125296;28;80606;-61
2022/02/13 14:37:27;;;;;;;9.30;2.72;;;27.10;36.90;;;;;;6093846;28;80492;-60
2022/02/13 14:40:27;;;;;;;3.88;2.50;;;27.00;37.40;;;;;;6102778;28;80518;-60
2022/02/13 14:43:28;;;;;;;3.85;2.60;;;26.90;38.10;;;;;;6109937;28;81309;-63
2022/02/13 14:46:28;;;;;;;11.18;2.78;;;26.70;38.60;;;;;;6103708;28;80564;-61
2022/02/13 14:49:29;;;;;;;2.95;2.10;;;26.70;38.90;;;;;;6102362;28;80450;-61
2022/02/13 14:52:29;;;;;;;3.45;2.70;;;26.50;39.20;;;;;;6115080;28;81040;-60
2022/02/13 14:55:30;;;;;;;2.85;2.30;;;26.40;39.40;;;;;;6098766;28;80694;-60
2022/02/13 14:58:32;;;;;;;6.90;3.47;;;26.40;39.70;;;;;;6096841;28;80716;-60
2022/02/13 15:01:32;;;;;;;3.22;2.15;;;26.20;39.90;;;;;;6117280;28;82247;-61
2022/02/13 15:04:33;;;;;;;4.18;2.60;;;26.10;40.10;;;;;;6112690;28;81651;-60
2022/02/13 15:07:34;;;;;;;4.38;2.60;;;26.00;40.10;;;;;;6114772;28;80864;-61
2022/02/13 15:10:36;;;;;;;3.75;2.42;;;25.90;40.50;;;;;;6130740;28;80476;-61
2022/02/13 15:13:37;;;;;;;2.83;2.20;;;25.90;40.70;;;;;;6131697;28;80895;-62
2022/02/13 15:16:37;;;;;;;4.13;2.85;;;25.80;40.80;;;;;;6128627;28;80908;-60
2022/02/13 15:19:38;;;;;;;3.83;2.75;;;25.70;40.80;;;;;;6132849;28;81276;-59
2022/02/13 15:22:39;;;;;;;5.38;3.25;;;25.60;40.60;;;;;;6106798;28;81817;-60
2022/02/13 15:25:39;;;;;;;4.60;2.80;;;25.60;40.00;;;;;;6107783;28;81110;-60
2022/02/13 15:28:41;;;;;;;5.10;3.33;;;25.50;40.50;;;;;;6111058;28;80805;-60
2022/02/13 15:31:42;;;;;;;6.32;3.03;;;25.40;40.20;;;;;;6104900;28;80272;-60